sensor_id;sensor_type;location;lat;lon;timestamp;temperature;humidity
26037;DHT22;13810;48.376;10.944;2022-12-18T00:00:10;-5.20;99.90
26037;DHT22;13810;48.376;10.944;2022-12-18T00:00:42;-5.20;99.90
26037;DHT22;13810;48.376;10.944;2022-12-18T00:01:21;-5.20;99.90
26037;DHT22;13810;48.376;10.944;2022-12-18T00:01:56;-5.20;99.90
26037;DHT22;13810;48.376;10.944;2022-12-18T00:02:27;-5.20;99.90
26037;DHT22;13810;48.376;10.944;2022-12-18T00:02:58;-5.20;99.90
26037;DHT22;13810;48.376;10.944;2022-12-18T00:03:28;-5.20;99.90
26037;DHT22;13810;48.376;10.944;2022-12-18T00:04:01;-5.20;99.90
26037;DHT22;13810;48.376;10.944;2022-12-18T00:04:32;-5.20;99.90
26037;DHT22;13810;48.376;10.944;2022-12-18T00:05:03;-5.20;99.90
26037;DHT22;13810;48.376;10.944;2022-12-18T00:05:34;-5.20;99.90
26037;DHT22;13810;48.376;10.944;2022-12-18T00:06:05;-5.20;99.90
26037;DHT22;13810;48.376;10.944;2022-12-18T00:06:35;-5.20;99.90
26037;DHT22;13810;48.376;10.944;2022-12-18T00:07:06;-5.20;99.90
26037;DHT22;13810;48.376;10.944;2022-12-18T00:07:37;-5.20;99.90
26037;DHT22;13810;48.376;10.944;2022-12-18T00:08:08;-5.20;99.90
26037;DHT22;13810;48.376;10.944;2022-12-18T00:08:39;-5.20;99.90
26037;DHT22;13810;48.376;10.944;2022-12-18T00:09:10;-5.10;99.90
26037;DHT22;13810;48.376;10.944;2022-12-18T00:09:40;-5.10;99.90
26037;DHT22;13810;48.376;10.944;2022-12-18T00:10:11;-5.10;99.90
26037;DHT22;13810;48.376;10.944;2022-12-18T00:10:42;-5.20;99.90
26037;DHT22;13810;48.376;10.944;2022-12-18T00:11:16;-5.20;99.90
26037;DHT22;13810;48.376;10.944;2022-12-18T00:11:47;-5.20;99.90
26037;DHT22;13810;48.376;10.944;2022-12-18T00:12:17;-5.10;99.90
26037;DHT22;13810;48.376;10.944;2022-12-18T00:12:48;-5.20;99.90
26037;DHT22;13810;48.376;10.944;2022-12-18T00:13:18;-5.10;99.90
26037;DHT22;13810;48.376;10.944;2022-12-18T00:13:50;-5.20;99.90
26037;DHT22;13810;48.376;10.944;2022-12-18T00:14:20;-5.10;99.90
26037;DHT22;13810;48.376;10.944;2022-12-18T00:14:51;-5.10;99.90
26037;DHT22;13810;48.376;10.944;2022-12-18T00:15:21;-5.10;99.90
26037;DHT22;13810;48.376;10.944;2022-12-18T00:15:52;-5.10;99.90
26037;DHT22;13810;48.376;10.944;2022-12-18T00:16:25;-5.10;99.90
26037;DHT22;13810;48.376;10.944;2022-12-18T00:16:56;-5.10;99.90
26037;DHT22;13810;48.376;10.944;2022-12-18T00:17:28;-5.10;99.90
26037;DHT22;13810;48.376;10.944;2022-12-18T00:17:59;-5.10;99.90
26037;DHT22;13810;48.376;10.944;2022-12-18T00:18:30;-5.20;99.90
26037;DHT22;13810;48.376;10.944;2022-12-18T00:19:01;-5.10;99.90
26037;DHT22;13810;48.376;10.944;2022-12-18T00:19:32;-5.20;99.90
26037;DHT22;13810;48.376;10.944;2022-12-18T00:20:03;-5.20;99.90
26037;DHT22;13810;48.376;10.944;2022-12-18T00:20:38;-5.10;99.90
26037;DHT22;13810;48.376;10.944;2022-12-18T00:21:10;-5.10;99.90
26037;DHT22;13810;48.376;10.944;2022-12-18T00:21:42;-5.10;99.90
26037;DHT22;13810;48.376;10.944;2022-12-18T00:22:13;-5.10;99.90
26037;DHT22;13810;48.376;10.944;2022-12-18T00:22:43;-5.10;99.90
26037;DHT22;13810;48.376;10.944;2022-12-18T00:23:14;-5.10;99.90
26037;DHT22;13810;48.376;10.944;2022-12-18T00:23:46;-5.10;99.90
26037;DHT22;13810;48.376;10.944;2022-12-18T00:24:17;-5.10;99.90
26037;DHT22;13810;48.376;10.944;2022-12-18T00:24:47;-5.10;99.90
26037;DHT22;13810;48.376;10.944;2022-12-18T00:25:18;-5.10;99.90
26037;DHT22;13810;48.376;10.944;2022-12-18T00:25:49;-5.10;99.90
26037;DHT22;13810;48.376;10.944;2022-12-18T00:26:24;-5.10;99.90
26037;DHT22;13810;48.376;10.944;2022-12-18T00:26:55;-5.10;99.90
26037;DHT22;13810;48.376;10.944;2022-12-18T00:27:25;-5.10;99.90
26037;DHT22;13810;48.376;10.944;2022-12-18T00:27:56;-5.10;99.90
26037;DHT22;13810;48.376;10.944;2022-12-18T00:28:27;-5.10;99.90
26037;DHT22;13810;48.376;10.944;2022-12-18T00:29:00;-5.10;99.90
26037;DHT22;13810;48.376;10.944;2022-12-18T00:29:30;-5.10;99.90
26037;DHT22;13810;48.376;10.944;2022-12-18T00:30:01;-5.00;99.90
26037;DHT22;13810;48.376;10.944;2022-12-18T00:30:32;-5.10;99.90
26037;DHT22;13810;48.376;10.944;2022-12-18T00:31:08;-5.10;99.90
26037;DHT22;13810;48.376;10.944;2022-12-18T00:31:39;-5.10;99.90
26037;DHT22;13810;48.376;10.944;2022-12-18T00:32:10;-5.10;99.90
26037;DHT22;13810;48.376;10.944;2022-12-18T00:32:41;-5.00;99.90
26037;DHT22;13810;48.376;10.944;2022-12-18T00:33:11;-5.00;99.90
26037;DHT22;13810;48.376;10.944;2022-12-18T00:33:42;-5.00;99.90
26037;DHT22;13810;48.376;10.944;2022-12-18T00:34:13;-5.00;99.90
26037;DHT22;13810;48.376;10.944;2022-12-18T00:34:44;-5.00;99.90
26037;DHT22;13810;48.376;10.944;2022-12-18T00:35:14;-5.00;99.90
26037;DHT22;13810;48.376;10.944;2022-12-18T00:35:45;-5.00;99.90
26037;DHT22;13810;48.376;10.944;2022-12-18T00:36:21;-5.00;99.90
26037;DHT22;13810;48.376;10.944;2022-12-18T00:36:52;-5.00;99.90
26037;DHT22;13810;48.376;10.944;2022-12-18T00:37:22;-5.00;99.90
26037;DHT22;13810;48.376;10.944;2022-12-18T00:37:53;-5.00;99.90
26037;DHT22;13810;48.376;10.944;2022-12-18T00:38:24;-5.00;99.90
26037;DHT22;13810;48.376;10.944;2022-12-18T00:38:55;-5.00;99.90
26037;DHT22;13810;48.376;10.944;2022-12-18T00:39:26;-5.00;99.90
26037;DHT22;13810;48.376;10.944;2022-12-18T00:39:57;-5.00;99.90
26037;DHT22;13810;48.376;10.944;2022-12-18T00:40:28;-5.00;99.90
26037;DHT22;13810;48.376;10.944;2022-12-18T00:40:58;-5.00;99.90
26037;DHT22;13810;48.376;10.944;2022-12-18T00:41:29;-5.00;99.90
26037;DHT22;13810;48.376;10.944;2022-12-18T00:42:18;-5.00;99.90
26037;DHT22;13810;48.376;10.944;2022-12-18T00:43:07;-5.00;99.90
26037;DHT22;13810;48.376;10.944;2022-12-18T00:43:39;-5.00;99.90
26037;DHT22;13810;48.376;10.944;2022-12-18T00:44:12;-5.00;99.90
26037;DHT22;13810;48.376;10.944;2022-12-18T00:44:43;-5.00;99.90
26037;DHT22;13810;48.376;10.944;2022-12-18T00:45:13;-5.00;99.90
26037;DHT22;13810;48.376;10.944;2022-12-18T00:45:44;-5.00;99.90
26037;DHT22;13810;48.376;10.944;2022-12-18T00:46:15;-5.00;99.90
26037;DHT22;13810;48.376;10.944;2022-12-18T00:46:47;-5.00;99.90
26037;DHT22;13810;48.376;10.944;2022-12-18T00:47:18;-5.00;99.90
26037;DHT22;13810;48.376;10.944;2022-12-18T00:47:49;-5.00;99.90
26037;DHT22;13810;48.376;10.944;2022-12-18T00:48:19;-5.00;99.90
26037;DHT22;13810;48.376;10.944;2022-12-18T00:48:50;-5.00;99.90
26037;DHT22;13810;48.376;10.944;2022-12-18T00:49:21;-5.10;99.90
26037;DHT22;13810;48.376;10.944;2022-12-18T00:49:52;-5.10;99.90
26037;DHT22;13810;48.376;10.944;2022-12-18T00:50:24;-5.10;99.90
26037;DHT22;13810;48.376;10.944;2022-12-18T00:50:55;-5.10;99.90
26037;DHT22;13810;48.376;10.944;2022-12-18T00:51:26;-5.10;99.90
26037;DHT22;13810;48.376;10.944;2022-12-18T00:51:57;-5.10;99.90
26037;DHT22;13810;48.376;10.944;2022-12-18T00:52:28;-5.10;99.90
26037;DHT22;13810;48.376;10.944;2022-12-18T00:52:58;-5.10;99.90
26037;DHT22;13810;48.376;10.944;2022-12-18T00:53:29;-5.10;99.90
26037;DHT22;13810;48.376;10.944;2022-12-18T00:54:00;-5.10;99.90
26037;DHT22;13810;48.376;10.944;2022-12-18T00:54:30;-5.10;99.90
26037;DHT22;13810;48.376;10.944;2022-12-18T00:55:01;-5.10;99.90
26037;DHT22;13810;48.376;10.944;2022-12-18T00:55:32;-5.00;99.90
26037;DHT22;13810;48.376;10.944;2022-12-18T00:56:03;-5.10;99.90
26037;DHT22;13810;48.376;10.944;2022-12-18T00:56:36;-5.10;99.90
26037;DHT22;13810;48.376;10.944;2022-12-18T00:57:07;-5.10;99.90
26037;DHT22;13810;48.376;10.944;2022-12-18T00:57:38;-5.10;99.90
26037;DHT22;13810;48.376;10.944;2022-12-18T00:58:10;-5.10;99.90
26037;DHT22;13810;48.376;10.944;2022-12-18T00:58:41;-5.10;99.90
26037;DHT22;13810;48.376;10.944;2022-12-18T00:59:11;-5.10;99.90
26037;DHT22;13810;48.376;10.944;2022-12-18T00:59:42;-5.10;99.90
26037;DHT22;13810;48.376;10.944;2022-12-18T01:00:15;-5.10;99.90
26037;DHT22;13810;48.376;10.944;2022-12-18T01:00:45;-5.10;99.90
26037;DHT22;13810;48.376;10.944;2022-12-18T01:01:16;-5.10;99.90
26037;DHT22;13810;48.376;10.944;2022-12-18T01:01:47;-5.20;99.90
26037;DHT22;13810;48.376;10.944;2022-12-18T01:02:18;-5.20;99.90
26037;DHT22;13810;48.376;10.944;2022-12-18T01:02:48;-5.20;99.90
26037;DHT22;13810;48.376;10.944;2022-12-18T01:03:19;-5.20;99.90
26037;DHT22;13810;48.376;10.944;2022-12-18T01:03:50;-5.20;99.90
26037;DHT22;13810;48.376;10.944;2022-12-18T01:04:21;-5.20;99.90
26037;DHT22;13810;48.376;10.944;2022-12-18T01:04:51;-5.20;99.90
26037;DHT22;13810;48.376;10.944;2022-12-18T01:05:22;-5.10;99.90
26037;DHT22;13810;48.376;10.944;2022-12-18T01:05:53;-5.20;99.90
26037;DHT22;13810;48.376;10.944;2022-12-18T01:06:23;-5.20;99.90
26037;DHT22;13810;48.376;10.944;2022-12-18T01:06:54;-5.20;99.90
26037;DHT22;13810;48.376;10.944;2022-12-18T01:07:25;-5.20;99.90
26037;DHT22;13810;48.376;10.944;2022-12-18T01:07:56;-5.20;99.90
26037;DHT22;13810;48.376;10.944;2022-12-18T01:08:27;-5.20;99.90
26037;DHT22;13810;48.376;10.944;2022-12-18T01:08:57;-5.20;99.90
26037;DHT22;13810;48.376;10.944;2022-12-18T01:09:28;-5.20;99.90
26037;DHT22;13810;48.376;10.944;2022-12-18T01:09:59;-5.20;99.90
26037;DHT22;13810;48.376;10.944;2022-12-18T01:10:29;-5.20;99.90
26037;DHT22;13810;48.376;10.944;2022-12-18T01:11:06;-5.20;99.90
26037;DHT22;13810;48.376;10.944;2022-12-18T01:11:37;-5.20;99.90
26037;DHT22;13810;48.376;10.944;2022-12-18T01:12:08;-5.20;99.90
26037;DHT22;13810;48.376;10.944;2022-12-18T01:12:39;-5.20;99.90
26037;DHT22;13810;48.376;10.944;2022-12-18T01:13:09;-5.20;99.90
26037;DHT22;13810;48.376;10.944;2022-12-18T01:13:40;-5.20;99.90
26037;DHT22;13810;48.376;10.944;2022-12-18T01:14:11;-5.20;99.90
26037;DHT22;13810;48.376;10.944;2022-12-18T01:14:42;-5.20;99.90
26037;DHT22;13810;48.376;10.944;2022-12-18T01:15:13;-5.20;99.90
26037;DHT22;13810;48.376;10.944;2022-12-18T01:15:50;-5.20;99.90
26037;DHT22;13810;48.376;10.944;2022-12-18T01:16:25;-5.20;99.90
26037;DHT22;13810;48.376;10.944;2022-12-18T01:16:55;-5.20;99.90
26037;DHT22;13810;48.376;10.944;2022-12-18T01:17:26;-5.20;99.90
26037;DHT22;13810;48.376;10.944;2022-12-18T01:17:57;-5.20;99.90
26037;DHT22;13810;48.376;10.944;2022-12-18T01:18:27;-5.20;99.90
26037;DHT22;13810;48.376;10.944;2022-12-18T01:18:58;-5.30;99.90
26037;DHT22;13810;48.376;10.944;2022-12-18T01:19:29;-5.30;99.90
26037;DHT22;13810;48.376;10.944;2022-12-18T01:20:00;-5.30;99.90
26037;DHT22;13810;48.376;10.944;2022-12-18T01:20:31;-5.30;99.90
26037;DHT22;13810;48.376;10.944;2022-12-18T01:21:07;-5.30;99.90
26037;DHT22;13810;48.376;10.944;2022-12-18T01:21:38;-5.30;99.90
26037;DHT22;13810;48.376;10.944;2022-12-18T01:22:09;-5.30;99.90
26037;DHT22;13810;48.376;10.944;2022-12-18T01:22:40;-5.30;99.90
26037;DHT22;13810;48.376;10.944;2022-12-18T01:23:10;-5.30;99.90
26037;DHT22;13810;48.376;10.944;2022-12-18T01:23:41;-5.30;99.90
26037;DHT22;13810;48.376;10.944;2022-12-18T01:24:12;-5.30;99.90
26037;DHT22;13810;48.376;10.944;2022-12-18T01:24:43;-5.30;99.90
26037;DHT22;13810;48.376;10.944;2022-12-18T01:25:13;-5.30;99.90
26037;DHT22;13810;48.376;10.944;2022-12-18T01:25:44;-5.40;99.90
26037;DHT22;13810;48.376;10.944;2022-12-18T01:26:15;-5.40;99.90
26037;DHT22;13810;48.376;10.944;2022-12-18T01:26:46;-5.40;99.90
26037;DHT22;13810;48.376;10.944;2022-12-18T01:27:17;-5.40;99.90
26037;DHT22;13810;48.376;10.944;2022-12-18T01:27:47;-5.40;99.90
26037;DHT22;13810;48.376;10.944;2022-12-18T01:28:18;-5.50;99.90
26037;DHT22;13810;48.376;10.944;2022-12-18T01:28:49;-5.40;99.90
26037;DHT22;13810;48.376;10.944;2022-12-18T01:29:19;-5.50;99.90
26037;DHT22;13810;48.376;10.944;2022-12-18T01:29:50;-5.50;99.90
26037;DHT22;13810;48.376;10.944;2022-12-18T01:30:21;-5.40;99.90
26037;DHT22;13810;48.376;10.944;2022-12-18T01:30:52;-5.50;99.90
26037;DHT22;13810;48.376;10.944;2022-12-18T01:31:28;-5.40;99.90
26037;DHT22;13810;48.376;10.944;2022-12-18T01:31:59;-5.40;99.90
26037;DHT22;13810;48.376;10.944;2022-12-18T01:32:30;-5.40;99.90
26037;DHT22;13810;48.376;10.944;2022-12-18T01:33:01;-5.40;99.90
26037;DHT22;13810;48.376;10.944;2022-12-18T01:33:34;-5.40;99.90
26037;DHT22;13810;48.376;10.944;2022-12-18T01:34:05;-5.40;99.90
26037;DHT22;13810;48.376;10.944;2022-12-18T01:34:37;-5.40;99.90
26037;DHT22;13810;48.376;10.944;2022-12-18T01:35:08;-5.40;99.90
26037;DHT22;13810;48.376;10.944;2022-12-18T01:35:42;-5.40;99.90
26037;DHT22;13810;48.376;10.944;2022-12-18T01:36:21;-5.40;99.90
26037;DHT22;13810;48.376;10.944;2022-12-18T01:36:52;-5.40;99.90
26037;DHT22;13810;48.376;10.944;2022-12-18T01:37:23;-5.40;99.90
26037;DHT22;13810;48.376;10.944;2022-12-18T01:37:56;-5.40;99.90
26037;DHT22;13810;48.376;10.944;2022-12-18T01:38:28;-5.40;99.90
26037;DHT22;13810;48.376;10.944;2022-12-18T01:39:05;-5.40;99.90
26037;DHT22;13810;48.376;10.944;2022-12-18T01:39:36;-5.40;99.90
26037;DHT22;13810;48.376;10.944;2022-12-18T01:40:07;-5.40;99.90
26037;DHT22;13810;48.376;10.944;2022-12-18T01:40:38;-5.40;99.90
26037;DHT22;13810;48.376;10.944;2022-12-18T01:41:09;-5.40;99.90
26037;DHT22;13810;48.376;10.944;2022-12-18T01:41:41;-5.40;99.90
26037;DHT22;13810;48.376;10.944;2022-12-18T01:42:30;-5.40;99.90
26037;DHT22;13810;48.376;10.944;2022-12-18T01:43:01;-5.40;99.90
26037;DHT22;13810;48.376;10.944;2022-12-18T01:43:43;-5.40;99.90
26037;DHT22;13810;48.376;10.944;2022-12-18T01:45:28;-5.40;99.90
26037;DHT22;13810;48.376;10.944;2022-12-18T01:45:59;-5.50;99.90
26037;DHT22;13810;48.376;10.944;2022-12-18T01:46:30;-5.50;99.90
26037;DHT22;13810;48.376;10.944;2022-12-18T01:47:01;-5.40;99.90
26037;DHT22;13810;48.376;10.944;2022-12-18T01:48:11;-5.50;99.90
26037;DHT22;13810;48.376;10.944;2022-12-18T01:48:42;-5.50;99.90
26037;DHT22;13810;48.376;10.944;2022-12-18T01:49:14;-5.50;99.90
26037;DHT22;13810;48.376;10.944;2022-12-18T01:49:44;-5.50;99.90
26037;DHT22;13810;48.376;10.944;2022-12-18T01:50:34;-5.50;99.90
26037;DHT22;13810;48.376;10.944;2022-12-18T01:51:08;-5.50;99.90
26037;DHT22;13810;48.376;10.944;2022-12-18T01:51:39;-5.50;99.90
26037;DHT22;13810;48.376;10.944;2022-12-18T01:52:10;-5.50;99.90
26037;DHT22;13810;48.376;10.944;2022-12-18T01:52:47;-5.50;99.90
26037;DHT22;13810;48.376;10.944;2022-12-18T01:53:21;-5.60;99.90
26037;DHT22;13810;48.376;10.944;2022-12-18T01:53:52;-5.50;99.90
26037;DHT22;13810;48.376;10.944;2022-12-18T01:54:23;-5.60;99.90
26037;DHT22;13810;48.376;10.944;2022-12-18T01:54:54;-5.60;99.90
26037;DHT22;13810;48.376;10.944;2022-12-18T01:55:28;-5.60;99.90
26037;DHT22;13810;48.376;10.944;2022-12-18T01:55:59;-5.60;99.90
26037;DHT22;13810;48.376;10.944;2022-12-18T01:56:30;-5.60;99.90
26037;DHT22;13810;48.376;10.944;2022-12-18T01:57:01;-5.60;99.90
26037;DHT22;13810;48.376;10.944;2022-12-18T01:57:32;-5.60;99.90
26037;DHT22;13810;48.376;10.944;2022-12-18T01:58:03;-5.60;99.90
26037;DHT22;13810;48.376;10.944;2022-12-18T01:59:07;-5.60;99.90
26037;DHT22;13810;48.376;10.944;2022-12-18T01:59:40;-5.60;99.90
26037;DHT22;13810;48.376;10.944;2022-12-18T02:00:15;-5.60;99.90
26037;DHT22;13810;48.376;10.944;2022-12-18T02:00:46;-5.60;99.90
26037;DHT22;13810;48.376;10.944;2022-12-18T02:01:16;-5.60;99.90
26037;DHT22;13810;48.376;10.944;2022-12-18T02:01:47;-5.60;99.90
26037;DHT22;13810;48.376;10.944;2022-12-18T02:02:18;-5.60;99.90
26037;DHT22;13810;48.376;10.944;2022-12-18T02:02:49;-5.60;99.90
26037;DHT22;13810;48.376;10.944;2022-12-18T02:03:20;-5.60;99.90
26037;DHT22;13810;48.376;10.944;2022-12-18T02:03:52;-5.60;99.90
26037;DHT22;13810;48.376;10.944;2022-12-18T02:04:26;-5.60;99.90
26037;DHT22;13810;48.376;10.944;2022-12-18T02:04:57;-5.60;99.90
26037;DHT22;13810;48.376;10.944;2022-12-18T02:06:25;-5.60;99.90
26037;DHT22;13810;48.376;10.944;2022-12-18T02:08:08;-5.60;99.90
26037;DHT22;13810;48.376;10.944;2022-12-18T02:09:02;-5.60;99.90
26037;DHT22;13810;48.376;10.944;2022-12-18T02:09:48;-5.60;99.90
26037;DHT22;13810;48.376;10.944;2022-12-18T02:10:34;-5.70;99.90
26037;DHT22;13810;48.376;10.944;2022-12-18T02:11:13;-5.70;99.90
26037;DHT22;13810;48.376;10.944;2022-12-18T02:12:05;-5.60;99.90
26037;DHT22;13810;48.376;10.944;2022-12-18T02:13:21;-5.70;99.90
26037;DHT22;13810;48.376;10.944;2022-12-18T02:14:40;-5.70;99.90
26037;DHT22;13810;48.376;10.944;2022-12-18T02:15:20;-5.70;99.90
26037;DHT22;13810;48.376;10.944;2022-12-18T02:15:59;-5.70;99.90
26037;DHT22;13810;48.376;10.944;2022-12-18T02:18:28;-5.70;99.90
26037;DHT22;13810;48.376;10.944;2022-12-18T02:19:06;-5.70;99.90
26037;DHT22;13810;48.376;10.944;2022-12-18T02:20:32;-5.70;99.90
26037;DHT22;13810;48.376;10.944;2022-12-18T02:21:56;-5.70;99.90
26037;DHT22;13810;48.376;10.944;2022-12-18T02:26:49;-5.80;99.90
26037;DHT22;13810;48.376;10.944;2022-12-18T02:27:20;-5.80;99.90
26037;DHT22;13810;48.376;10.944;2022-12-18T02:27:52;-5.90;99.90
26037;DHT22;13810;48.376;10.944;2022-12-18T02:28:30;-5.90;99.90
26037;DHT22;13810;48.376;10.944;2022-12-18T02:29:12;-5.90;99.90
26037;DHT22;13810;48.376;10.944;2022-12-18T02:29:49;-5.90;99.90
26037;DHT22;13810;48.376;10.944;2022-12-18T02:30:21;-5.90;99.90
26037;DHT22;13810;48.376;10.944;2022-12-18T02:30:53;-5.90;99.90
26037;DHT22;13810;48.376;10.944;2022-12-18T02:31:29;-5.90;99.90
26037;DHT22;13810;48.376;10.944;2022-12-18T02:32:04;-5.90;99.90
26037;DHT22;13810;48.376;10.944;2022-12-18T02:32:42;-5.90;99.90
26037;DHT22;13810;48.376;10.944;2022-12-18T02:33:14;-5.90;99.90
26037;DHT22;13810;48.376;10.944;2022-12-18T02:33:46;-5.90;99.90
26037;DHT22;13810;48.376;10.944;2022-12-18T02:34:19;-5.90;99.90
26037;DHT22;13810;48.376;10.944;2022-12-18T02:34:53;-5.90;99.90
26037;DHT22;13810;48.376;10.944;2022-12-18T02:35:28;-5.90;99.90
26037;DHT22;13810;48.376;10.944;2022-12-18T02:36:00;-5.90;99.90
26037;DHT22;13810;48.376;10.944;2022-12-18T02:36:32;-5.90;99.90
26037;DHT22;13810;48.376;10.944;2022-12-18T02:37:07;-5.90;99.90
26037;DHT22;13810;48.376;10.944;2022-12-18T02:37:40;-5.90;99.90
26037;DHT22;13810;48.376;10.944;2022-12-18T02:38:13;-5.90;99.90
26037;DHT22;13810;48.376;10.944;2022-12-18T02:38:45;-5.90;99.90
26037;DHT22;13810;48.376;10.944;2022-12-18T02:39:17;-5.80;99.90
26037;DHT22;13810;48.376;10.944;2022-12-18T02:39:51;-5.80;99.90
26037;DHT22;13810;48.376;10.944;2022-12-18T02:40:25;-5.90;99.90
26037;DHT22;13810;48.376;10.944;2022-12-18T02:40:57;-5.90;99.90
26037;DHT22;13810;48.376;10.944;2022-12-18T02:41:28;-5.90;99.90
26037;DHT22;13810;48.376;10.944;2022-12-18T02:42:00;-5.90;99.90
26037;DHT22;13810;48.376;10.944;2022-12-18T02:42:38;-5.80;99.90
26037;DHT22;13810;48.376;10.944;2022-12-18T02:43:11;-5.80;99.90
26037;DHT22;13810;48.376;10.944;2022-12-18T02:43:47;-5.80;99.90
26037;DHT22;13810;48.376;10.944;2022-12-18T02:44:19;-5.80;99.90
26037;DHT22;13810;48.376;10.944;2022-12-18T02:44:51;-5.80;99.90
26037;DHT22;13810;48.376;10.944;2022-12-18T02:45:26;-5.80;99.90
26037;DHT22;13810;48.376;10.944;2022-12-18T02:45:58;-5.80;99.90
26037;DHT22;13810;48.376;10.944;2022-12-18T02:46:33;-5.80;99.90
26037;DHT22;13810;48.376;10.944;2022-12-18T02:47:04;-5.80;99.90
26037;DHT22;13810;48.376;10.944;2022-12-18T02:47:40;-5.80;99.90
26037;DHT22;13810;48.376;10.944;2022-12-18T02:48:12;-5.80;99.90
26037;DHT22;13810;48.376;10.944;2022-12-18T02:48:43;-5.70;99.90
26037;DHT22;13810;48.376;10.944;2022-12-18T02:50:49;-5.70;99.90
26037;DHT22;13810;48.376;10.944;2022-12-18T02:51:32;-5.70;99.90
26037;DHT22;13810;48.376;10.944;2022-12-18T02:53:53;-5.70;99.90
26037;DHT22;13810;48.376;10.944;2022-12-18T02:55:02;-5.60;99.90
26037;DHT22;13810;48.376;10.944;2022-12-18T02:56:30;-5.70;99.90
26037;DHT22;13810;48.376;10.944;2022-12-18T02:58:31;-5.70;99.90
26037;DHT22;13810;48.376;10.944;2022-12-18T02:59:08;-5.60;99.90
26037;DHT22;13810;48.376;10.944;2022-12-18T03:00:12;-5.70;99.90
26037;DHT22;13810;48.376;10.944;2022-12-18T03:00:43;-5.70;99.90
26037;DHT22;13810;48.376;10.944;2022-12-18T03:01:30;-5.70;99.90
26037;DHT22;13810;48.376;10.944;2022-12-18T03:02:16;-5.60;99.90
26037;DHT22;13810;48.376;10.944;2022-12-18T03:03:02;-5.60;99.90
26037;DHT22;13810;48.376;10.944;2022-12-18T03:03:51;-5.70;99.90
26037;DHT22;13810;48.376;10.944;2022-12-18T03:05:22;-5.60;99.90
26037;DHT22;13810;48.376;10.944;2022-12-18T03:06:20;-5.70;99.90
26037;DHT22;13810;48.376;10.944;2022-12-18T03:06:56;-5.70;99.90
26037;DHT22;13810;48.376;10.944;2022-12-18T03:07:37;-5.70;99.90
26037;DHT22;13810;48.376;10.944;2022-12-18T03:08:14;-5.70;99.90
26037;DHT22;13810;48.376;10.944;2022-12-18T03:08:48;-5.70;99.90
26037;DHT22;13810;48.376;10.944;2022-12-18T03:09:34;-5.70;99.90
26037;DHT22;13810;48.376;10.944;2022-12-18T03:10:07;-5.70;99.90
26037;DHT22;13810;48.376;10.944;2022-12-18T03:10:44;-5.60;99.90
26037;DHT22;13810;48.376;10.944;2022-12-18T03:11:16;-5.70;99.90
26037;DHT22;13810;48.376;10.944;2022-12-18T03:12:15;-5.60;99.90
26037;DHT22;13810;48.376;10.944;2022-12-18T03:13:07;-5.70;99.90
26037;DHT22;13810;48.376;10.944;2022-12-18T03:13:49;-5.60;99.90
26037;DHT22;13810;48.376;10.944;2022-12-18T03:14:23;-5.70;99.90
26037;DHT22;13810;48.376;10.944;2022-12-18T03:15:48;-5.70;99.90
26037;DHT22;13810;48.376;10.944;2022-12-18T03:16:28;-5.70;99.90
26037;DHT22;13810;48.376;10.944;2022-12-18T03:17:03;-5.60;99.90
26037;DHT22;13810;48.376;10.944;2022-12-18T03:17:35;-5.70;99.90
26037;DHT22;13810;48.376;10.944;2022-12-18T03:18:12;-5.60;99.90
26037;DHT22;13810;48.376;10.944;2022-12-18T03:19:19;-5.60;99.90
26037;DHT22;13810;48.376;10.944;2022-12-18T03:19:53;-5.60;99.90
26037;DHT22;13810;48.376;10.944;2022-12-18T03:20:29;-5.60;99.90
26037;DHT22;13810;48.376;10.944;2022-12-18T03:21:05;-5.60;99.90
26037;DHT22;13810;48.376;10.944;2022-12-18T03:21:45;-5.70;99.90
26037;DHT22;13810;48.376;10.944;2022-12-18T03:22:16;-5.70;99.90
26037;DHT22;13810;48.376;10.944;2022-12-18T03:22:51;-5.70;99.90
26037;DHT22;13810;48.376;10.944;2022-12-18T03:23:27;-5.60;99.90
26037;DHT22;13810;48.376;10.944;2022-12-18T03:23:59;-5.60;99.90
26037;DHT22;13810;48.376;10.944;2022-12-18T03:24:31;-5.60;99.90
26037;DHT22;13810;48.376;10.944;2022-12-18T03:25:06;-5.60;99.90
26037;DHT22;13810;48.376;10.944;2022-12-18T03:25:40;-5.60;99.90
26037;DHT22;13810;48.376;10.944;2022-12-18T03:26:16;-5.60;99.90
26037;DHT22;13810;48.376;10.944;2022-12-18T03:26:51;-5.60;99.90
26037;DHT22;13810;48.376;10.944;2022-12-18T03:27:24;-5.60;99.90
26037;DHT22;13810;48.376;10.944;2022-12-18T03:27:58;-5.60;99.90
26037;DHT22;13810;48.376;10.944;2022-12-18T03:28:32;-5.60;99.90
26037;DHT22;13810;48.376;10.944;2022-12-18T03:29:08;-5.60;99.90
26037;DHT22;13810;48.376;10.944;2022-12-18T03:29:42;-5.60;99.90
26037;DHT22;13810;48.376;10.944;2022-12-18T03:30:14;-5.60;99.90
26037;DHT22;13810;48.376;10.944;2022-12-18T03:30:46;-5.60;99.90
26037;DHT22;13810;48.376;10.944;2022-12-18T03:31:20;-5.60;99.90
26037;DHT22;13810;48.376;10.944;2022-12-18T03:31:56;-5.60;99.90
26037;DHT22;13810;48.376;10.944;2022-12-18T03:32:31;-5.60;99.90
26037;DHT22;13810;48.376;10.944;2022-12-18T03:34:13;-5.60;99.90
26037;DHT22;13810;48.376;10.944;2022-12-18T03:34:46;-5.60;99.90
26037;DHT22;13810;48.376;10.944;2022-12-18T03:35:23;-5.60;99.90
26037;DHT22;13810;48.376;10.944;2022-12-18T03:35:55;-5.60;99.90
26037;DHT22;13810;48.376;10.944;2022-12-18T03:36:26;-5.60;99.90
26037;DHT22;13810;48.376;10.944;2022-12-18T03:37:01;-5.60;99.90
26037;DHT22;13810;48.376;10.944;2022-12-18T03:37:32;-5.60;99.90
26037;DHT22;13810;48.376;10.944;2022-12-18T03:38:03;-5.60;99.90
26037;DHT22;13810;48.376;10.944;2022-12-18T03:38:34;-5.60;99.90
26037;DHT22;13810;48.376;10.944;2022-12-18T03:39:05;-5.60;99.90
26037;DHT22;13810;48.376;10.944;2022-12-18T03:39:36;-5.60;99.90
26037;DHT22;13810;48.376;10.944;2022-12-18T03:40:07;-5.60;99.90
26037;DHT22;13810;48.376;10.944;2022-12-18T03:40:53;-5.60;99.90
26037;DHT22;13810;48.376;10.944;2022-12-18T03:41:34;-5.60;99.90
26037;DHT22;13810;48.376;10.944;2022-12-18T03:42:09;-5.60;99.90
26037;DHT22;13810;48.376;10.944;2022-12-18T03:42:55;-5.60;99.90
26037;DHT22;13810;48.376;10.944;2022-12-18T03:43:42;-5.60;99.90
26037;DHT22;13810;48.376;10.944;2022-12-18T03:45:12;-5.60;99.90
26037;DHT22;13810;48.376;10.944;2022-12-18T03:45:52;-5.60;99.90
26037;DHT22;13810;48.376;10.944;2022-12-18T03:46:33;-5.60;99.90
26037;DHT22;13810;48.376;10.944;2022-12-18T03:47:47;-5.60;99.90
26037;DHT22;13810;48.376;10.944;2022-12-18T03:48:37;-5.60;99.90
26037;DHT22;13810;48.376;10.944;2022-12-18T03:49:25;-5.60;99.90
26037;DHT22;13810;48.376;10.944;2022-12-18T03:50:20;-5.60;99.90
26037;DHT22;13810;48.376;10.944;2022-12-18T03:50:57;-5.60;99.90
26037;DHT22;13810;48.376;10.944;2022-12-18T03:53:36;-5.60;99.90
26037;DHT22;13810;48.376;10.944;2022-12-18T03:54:10;-5.70;99.90
26037;DHT22;13810;48.376;10.944;2022-12-18T03:54:41;-5.70;99.90
26037;DHT22;13810;48.376;10.944;2022-12-18T03:55:13;-5.60;99.90
26037;DHT22;13810;48.376;10.944;2022-12-18T03:55:45;-5.70;99.90